Time;durP1;ratioP1;P1;durP2;ratioP2;P2;SDS_P1;SDS_P2;PMS_P1;PMS_P2;Temp;Humidity;BMP_temperature;BMP_pressure;BME280_temperature;BME280_humidity;BME280_pressure;Samples;Min_cycle;Max_cycle;Signal;HPM_P1;HPM_P2
2021/06/12 00:02:15;;;;;;;9.32;7.80;;;;;;;;;;5097378;28;20474;-70
2021/06/12 00:04:41;;;;;;;8.48;7.63;;;;;;;;;;5097225;28;20396;-70
2021/06/12 00:07:07;;;;;;;8.90;8.02;;;;;;;;;;5097937;28;20020;-70
2021/06/12 00:09:33;;;;;;;9.95;7.80;;;;;;;;;;5097694;28;20028;-70
2021/06/12 00:11:59;;;;;;;8.27;7.47;;;;;;;;;;5097438;28;20024;-70
2021/06/12 00:14:25;;;;;;;7.38;6.68;;;;;;;;;;5097237;28;20024;-70
2021/06/12 00:16:51;;;;;;;8.27;7.05;;;;;;;;;;5096823;28;20020;-70
2021/06/12 00:19:17;;;;;;;8.50;7.40;;;;;;;;;;5096728;28;20523;-70
2021/06/12 00:21:43;;;;;;;7.97;7.28;;;;;;;;;;5096851;28;20389;-70
2021/06/12 00:24:09;;;;;;;8.00;7.20;;;;;;;;;;5097101;28;20162;-70
2021/06/12 00:26:35;;;;;;;10.18;6.85;;;;;;;;;;5096849;28;20369;-70
2021/06/12 00:29:01;;;;;;;9.27;8.25;;;;;;;;;;5096745;28;20028;-70
2021/06/12 00:31:27;;;;;;;8.02;7.20;;;;;;;;;;5096597;28;20016;-71
2021/06/12 00:33:54;;;;;;;8.07;7.28;;;;;;;;;;5096924;28;20040;-70
2021/06/12 00:36:20;;;;;;;7.75;7.10;;;;;;;;;;5097037;28;20030;-70
2021/06/12 00:38:47;;;;;;;8.02;7.32;;;;;;;;;;5096635;28;20027;-70
2021/06/12 00:41:13;;;;;;;9.30;7.72;;;;;;;;;;5096624;28;20044;-70
2021/06/12 00:43:41;;;;;;;8.75;7.85;;;;;;;;;;5096982;28;20027;-70
2021/06/12 00:46:07;;;;;;;7.70;7.00;;;;;;;;;;5096264;28;20114;-70
2021/06/12 00:48:33;;;;;;;8.85;6.65;;;;;;;;;;5096310;28;20419;-71
2021/06/12 00:50:59;;;;;;;7.93;7.05;;;;;;;;;;5096264;28;20055;-70
2021/06/12 00:53:40;;;;;;;9.27;7.32;;;;;;;;;;5096891;28;20020;-70
2021/06/12 00:56:14;;;;;;;7.68;6.97;;;;;;;;;;5096776;28;20020;-70
2021/06/12 00:58:42;;;;;;;8.73;7.82;;;;;;;;;;5096030;28;20035;-71
2021/06/12 01:01:09;;;;;;;9.43;6.65;;;;;;;;;;5096464;28;20036;-70
2021/06/12 01:03:35;;;;;;;13.35;7.53;;;;;;;;;;5096382;28;20358;-70
2021/06/12 01:06:02;;;;;;;8.80;7.90;;;;;;;;;;5096098;28;20501;-70
2021/06/12 01:08:28;;;;;;;8.98;8.07;;;;;;;;;;5095757;28;20415;-70
2021/06/12 01:10:54;;;;;;;7.43;6.82;;;;;;;;;;5095851;28;20029;-70
2021/06/12 01:13:31;;;;;;;9.30;8.43;;;;;;;;;;5096169;28;20028;-70
2021/06/12 01:16:00;;;;;;;7.82;7.13;;;;;;;;;;5096382;28;20027;-70
2021/06/12 01:18:27;;;;;;;9.95;8.48;;;;;;;;;;5096000;28;20448;-70
2021/06/12 01:21:03;;;;;;;7.18;6.57;;;;;;;;;;5095377;28;20028;-70
2021/06/12 01:23:45;;;;;;;7.40;6.70;;;;;;;;;;5095543;28;20469;-70
2021/06/12 01:26:12;;;;;;;9.18;8.25;;;;;;;;;;5095766;28;20044;-70
2021/06/12 01:28:58;;;;;;;9.30;7.93;;;;;;;;;;5095590;28;20023;-70
2021/06/12 01:31:24;;;;;;;7.93;7.18;;;;;;;;;;5081064;28;20099;-69
2021/06/12 01:33:50;;;;;;;9.07;7.75;;;;;;;;;;5095396;28;20032;-70
2021/06/12 01:36:16;;;;;;;8.95;7.40;;;;;;;;;;5095346;28;20024;-70
2021/06/12 01:38:44;;;;;;;8.70;7.75;;;;;;;;;;5094978;28;20020;-70
2021/06/12 01:41:10;;;;;;;9.75;7.20;;;;;;;;;;5095294;28;20043;-70
2021/06/12 01:43:37;;;;;;;14.05;7.88;;;;;;;;;;5095692;28;20359;-70
2021/06/12 01:46:03;;;;;;;7.97;7.28;;;;;;;;;;5095658;28;20024;-70
2021/06/12 01:48:29;;;;;;;10.07;6.80;;;;;;;;;;5095491;28;20059;-70
2021/06/12 01:50:56;;;;;;;8.40;7.45;;;;;;;;;;5094564;28;20048;-70
2021/06/12 01:53:22;;;;;;;8.13;7.32;;;;;;;;;;5095295;28;20032;-70
2021/06/12 01:55:48;;;;;;;18.15;7.80;;;;;;;;;;5095269;28;20029;-69
2021/06/12 01:58:16;;;;;;;8.43;7.25;;;;;;;;;;5095033;28;20031;-70
2021/06/12 02:00:43;;;;;;;9.60;6.97;;;;;;;;;;5094945;28;20036;-70
2021/06/12 02:03:09;;;;;;;10.75;7.13;;;;;;;;;;5095282;28;20110;-70
2021/06/12 02:05:35;;;;;;;8.82;6.93;;;;;;;;;;5094718;28;20465;-70
2021/06/12 02:08:02;;;;;;;9.18;8.25;;;;;;;;;;5095074;28;20032;-70
2021/06/12 02:10:30;;;;;;;11.50;7.72;;;;;;;;;;5095042;28;20103;-70
2021/06/12 02:12:56;;;;;;;7.45;6.80;;;;;;;;;;5094718;28;20028;-70
2021/06/12 02:15:22;;;;;;;9.23;8.38;;;;;;;;;;5095026;28;20030;-70
2021/06/12 02:17:48;;;;;;;9.00;8.15;;;;;;;;;;5094628;28;20491;-70
2021/06/12 02:20:14;;;;;;;7.63;7.03;;;;;;;;;;5094399;28;20036;-69
2021/06/12 02:22:41;;;;;;;8.73;7.82;;;;;;;;;;5094214;28;20028;-70
2021/06/12 02:25:08;;;;;;;7.70;6.95;;;;;;;;;;5094411;28;20572;-70
2021/06/12 02:27:34;;;;;;;7.55;6.82;;;;;;;;;;5094581;28;20032;-70
2021/06/12 02:30:00;;;;;;;10.40;7.28;;;;;;;;;;5094607;28;20085;-70
2021/06/12 02:32:26;;;;;;;8.13;7.35;;;;;;;;;;5094720;28;20532;-69
2021/06/12 02:34:52;;;;;;;7.65;7.05;;;;;;;;;;5093891;28;20390;-70
2021/06/12 02:37:18;;;;;;;8.52;7.07;;;;;;;;;;5094842;28;20111;-70
2021/06/12 02:39:44;;;;;;;7.38;6.75;;;;;;;;;;5094835;28;20028;-69
2021/06/12 02:42:10;;;;;;;10.13;7.85;;;;;;;;;;5094716;28;20378;-70
2021/06/12 02:44:36;;;;;;;8.10;7.40;;;;;;;;;;5094238;28;20055;-70
2021/06/12 02:47:04;;;;;;;10.00;7.60;;;;;;;;;;5094183;28;20021;-70
2021/06/12 02:49:34;;;;;;;7.93;7.10;;;;;;;;;;5094158;28;20505;-70
2021/06/12 02:52:01;;;;;;;8.93;8.13;;;;;;;;;;5094862;28;20064;-70
2021/06/12 02:54:27;;;;;;;10.00;7.57;;;;;;;;;;5094498;28;20024;-70
2021/06/12 02:56:53;;;;;;;8.15;7.45;;;;;;;;;;5094120;28;20458;-70
2021/06/12 02:59:19;;;;;;;8.25;7.45;;;;;;;;;;5094374;28;20541;-70
2021/06/12 03:01:46;;;;;;;8.23;7.53;;;;;;;;;;5094211;28;20031;-70
2021/06/12 03:04:12;;;;;;;7.85;7.15;;;;;;;;;;5094255;28;20106;-70
2021/06/12 03:06:38;;;;;;;8.35;7.15;;;;;;;;;;5093998;28;20086;-70
2021/06/12 03:09:05;;;;;;;9.25;6.85;;;;;;;;;;5094681;28;20021;-70
2021/06/12 03:11:31;;;;;;;9.75;7.15;;;;;;;;;;5094462;28;20465;-70
2021/06/12 03:13:57;;;;;;;13.20;6.88;;;;;;;;;;5094679;28;20107;-70
2021/06/12 03:16:23;;;;;;;10.52;7.68;;;;;;;;;;5094163;28;20028;-70
2021/06/12 03:18:49;;;;;;;7.32;6.63;;;;;;;;;;5093445;28;20031;-70
2021/06/12 03:21:15;;;;;;;8.50;7.65;;;;;;;;;;5094746;28;20093;-70
2021/06/12 03:23:41;;;;;;;7.60;6.88;;;;;;;;;;5094273;28;20032;-70
2021/06/12 03:26:08;;;;;;;7.22;6.53;;;;;;;;;;5094448;28;20074;-69
2021/06/12 03:28:34;;;;;;;8.60;7.43;;;;;;;;;;5094055;28;20059;-70
2021/06/12 03:31:02;;;;;;;8.75;7.38;;;;;;;;;;5093868;28;20028;-69
2021/06/12 03:33:28;;;;;;;7.60;6.85;;;;;;;;;;5093809;28;20024;-70
2021/06/12 03:35:54;;;;;;;8.35;6.88;;;;;;;;;;5096741;28;20024;-70
2021/06/12 03:38:20;;;;;;;6.97;6.40;;;;;;;;;;5097953;28;20024;-69
2021/06/12 03:40:46;;;;;;;7.53;6.50;;;;;;;;;;5097702;28;20138;-70
2021/06/12 03:43:12;;;;;;;7.78;7.07;;;;;;;;;;5097670;28;20523;-69
2021/06/12 03:45:40;;;;;;;7.43;6.72;;;;;;;;;;5097682;28;20112;-70
2021/06/12 03:48:08;;;;;;;8.25;7.53;;;;;;;;;;5097425;28;20016;-70
2021/06/12 03:50:34;;;;;;;7.88;7.18;;;;;;;;;;5097152;28;20524;-70
2021/06/12 03:53:01;;;;;;;7.40;6.75;;;;;;;;;;5097673;28;20420;-70
2021/06/12 03:55:27;;;;;;;10.05;6.88;;;;;;;;;;5097977;28;20025;-70
2021/06/12 03:57:53;;;;;;;7.63;6.93;;;;;;;;;;5097453;28;20045;-69
2021/06/12 04:00:19;;;;;;;8.25;7.43;;;;;;;;;;5097322;28;20020;-70
2021/06/12 04:02:45;;;;;;;8.30;6.53;;;;;;;;;;5099713;28;20028;-70
2021/06/12 04:05:11;;;;;;;9.25;8.18;;;;;;;;;;5106406;28;20080;-69
2021/06/12 04:07:38;;;;;;;8.05;7.35;;;;;;;;;;5106848;28;20025;-69
2021/06/12 04:10:05;;;;;;;8.77;7.35;;;;;;;;;;5105084;28;20020;-70
2021/06/12 04:12:32;;;;;;;10.75;6.88;;;;;;;;;;5106057;28;20024;-70
2021/06/12 04:14:58;;;;;;;8.45;7.70;;;;;;;;;;5106238;28;20020;-71
2021/06/12 04:17:24;;;;;;;13.45;7.55;;;;;;;;;;5104384;28;20016;-71
2021/06/12 04:19:50;;;;;;;15.70;7.38;;;;;;;;;;5106340;28;20066;-71
2021/06/12 04:22:16;;;;;;;8.77;7.97;;;;;;;;;;5106267;28;20020;-72
2021/06/12 04:24:42;;;;;;;8.25;7.28;;;;;;;;;;5104202;28;20346;-72
2021/06/12 04:27:08;;;;;;;8.48;7.57;;;;;;;;;;5106781;28;20363;-70
2021/06/12 04:29:34;;;;;;;9.45;6.93;;;;;;;;;;5106100;28;20168;-70
2021/06/12 04:32:01;;;;;;;8.00;7.30;;;;;;;;;;5107125;28;20525;-72
2021/06/12 04:34:27;;;;;;;12.93;7.55;;;;;;;;;;5105188;28;20024;-74
2021/06/12 04:36:53;;;;;;;8.82;7.80;;;;;;;;;;5105806;28;20031;-72
2021/06/12 04:39:19;;;;;;;11.07;7.40;;;;;;;;;;5103862;28;20123;-71
2021/06/12 04:41:45;;;;;;;15.50;7.38;;;;;;;;;;5106449;28;20092;-70
2021/06/12 04:44:11;;;;;;;9.05;7.72;;;;;;;;;;5105139;28;20024;-70
2021/06/12 04:46:39;;;;;;;10.65;7.40;;;;;;;;;;5103969;28;20026;-70
2021/06/12 04:49:05;;;;;;;12.35;8.35;;;;;;;;;;5106091;28;20020;-71
2021/06/12 04:51:31;;;;;;;8.52;7.68;;;;;;;;;;5104494;28;20044;-71
2021/06/12 04:53:57;;;;;;;9.07;8.07;;;;;;;;;;5104847;28;20035;-71
2021/06/12 04:56:23;;;;;;;19.38;8.95;;;;;;;;;;5101048;28;20020;-71
2021/06/12 04:58:49;;;;;;;9.88;8.73;;;;;;;;;;5094572;28;20021;-71
2021/06/12 05:01:16;;;;;;;11.20;8.38;;;;;;;;;;5095726;28;20469;-72
2021/06/12 05:03:42;;;;;;;9.15;8.25;;;;;;;;;;5095900;28;20565;-71
2021/06/12 05:06:08;;;;;;;9.95;8.23;;;;;;;;;;5095985;28;20054;-71
2021/06/12 05:08:34;;;;;;;12.68;8.93;;;;;;;;;;5095571;28;20056;-72
2021/06/12 05:11:00;;;;;;;10.55;9.48;;;;;;;;;;5095988;28;20024;-72
2021/06/12 05:13:26;;;;;;;11.88;8.88;;;;;;;;;;5095659;28;20385;-72
2021/06/12 05:15:52;;;;;;;13.75;10.38;;;;;;;;;;5095200;28;20347;-72
2021/06/12 05:18:21;;;;;;;10.55;8.75;;;;;;;;;;5095815;28;20028;-72
2021/06/12 05:20:47;;;;;;;10.10;9.15;;;;;;;;;;5095241;28;20032;-72
2021/06/12 05:23:13;;;;;;;14.75;9.85;;;;;;;;;;5095122;28;20350;-72
2021/06/12 05:25:39;;;;;;;12.43;8.98;;;;;;;;;;5095613;28;20168;-72
2021/06/12 05:28:05;;;;;;;10.32;9.27;;;;;;;;;;5095217;28;20031;-76
2021/06/12 05:30:31;;;;;;;20.25;9.85;;;;;;;;;;5095090;28;20505;-75
2021/06/12 05:32:57;;;;;;;33.10;16.55;;;;;;;;;;5095013;28;20800;-71
2021/06/12 05:35:23;;;;;;;24.77;16.33;;;;;;;;;;5095369;28;20032;-73
2021/06/12 05:37:50;;;;;;;18.13;13.82;;;;;;;;;;5095259;28;20501;-72
2021/06/12 05:40:16;;;;;;;28.98;13.93;;;;;;;;;;5094573;28;20420;-75
2021/06/12 05:42:42;;;;;;;16.58;11.73;;;;;;;;;;5094747;28;20057;-72
2021/06/12 05:45:09;;;;;;;17.88;11.40;;;;;;;;;;5094314;28;20442;-73
2021/06/12 05:47:35;;;;;;;12.77;11.02;;;;;;;;;;5095125;28;20028;-73
2021/06/12 05:50:01;;;;;;;16.85;10.77;;;;;;;;;;5094897;28;20134;-72
2021/06/12 05:52:27;;;;;;;11.80;9.85;;;;;;;;;;5094864;28;20016;-73
2021/06/12 05:54:53;;;;;;;16.30;10.00;;;;;;;;;;5101892;28;20350;-76
2021/06/12 05:57:19;;;;;;;10.65;9.55;;;;;;;;;;5101659;28;20020;-73
2021/06/12 05:59:45;;;;;;;15.23;10.48;;;;;;;;;;5104127;28;20065;-73
2021/06/12 06:02:11;;;;;;;11.48;10.27;;;;;;;;;;5104092;28;20453;-73
2021/06/12 06:04:37;;;;;;;13.88;9.65;;;;;;;;;;5101802;28;20091;-76
2021/06/12 06:07:04;;;;;;;19.30;9.95;;;;;;;;;;5104311;28;20022;-75
2021/06/12 06:09:30;;;;;;;12.50;8.80;;;;;;;;;;5103820;28;20031;-76
2021/06/12 06:11:56;;;;;;;9.48;8.50;;;;;;;;;;5102633;28;20034;-75
2021/06/12 06:14:22;;;;;;;12.07;8.75;;;;;;;;;;5102099;28;20488;-75
2021/06/12 06:16:48;;;;;;;10.90;9.05;;;;;;;;;;5103040;28;20012;-75
2021/06/12 06:19:15;;;;;;;13.32;7.90;;;;;;;;;;5098775;28;20127;-72
2021/06/12 06:21:41;;;;;;;11.57;8.68;;;;;;;;;;5094233;28;20481;-74
2021/06/12 06:24:07;;;;;;;9.77;8.82;;;;;;;;;;5094361;28;20035;-72
2021/06/12 06:26:33;;;;;;;12.15;8.52;;;;;;;;;;5094203;28;20074;-73
2021/06/12 06:28:59;;;;;;;17.00;9.77;;;;;;;;;;5093573;28;20520;-75
2021/06/12 06:31:25;;;;;;;15.43;10.38;;;;;;;;;;5094481;28;20032;-73
2021/06/12 06:33:51;;;;;;;15.30;9.45;;;;;;;;;;5094695;28;20032;-75
2021/06/12 06:36:18;;;;;;;15.95;8.77;;;;;;;;;;5093782;28;20051;-73
2021/06/12 06:38:44;;;;;;;16.42;9.85;;;;;;;;;;5093956;28;20073;-73
2021/06/12 06:41:10;;;;;;;11.40;8.50;;;;;;;;;;5094329;28;20043;-76
2021/06/12 06:43:36;;;;;;;10.32;8.98;;;;;;;;;;5093955;28;20453;-74
2021/06/12 06:46:02;;;;;;;13.05;8.35;;;;;;;;;;5093853;28;20021;-74
2021/06/12 06:48:28;;;;;;;9.35;7.95;;;;;;;;;;5094195;28;20028;-72
2021/06/12 06:50:54;;;;;;;11.65;7.80;;;;;;;;;;5093678;28;20224;-72
2021/06/12 06:53:20;;;;;;;18.98;7.68;;;;;;;;;;5094132;28;20024;-71
2021/06/12 06:55:46;;;;;;;20.50;9.68;;;;;;;;;;5093530;28;20473;-71
2021/06/12 06:58:12;;;;;;;19.52;9.05;;;;;;;;;;5094204;28;20036;-71
2021/06/12 07:00:39;;;;;;;16.17;8.57;;;;;;;;;;5093597;28;20043;-71
2021/06/12 07:03:05;;;;;;;15.65;8.57;;;;;;;;;;5111490;28;20476;-72
2021/06/12 07:05:31;;;;;;;12.82;7.55;;;;;;;;;;5113381;28;20073;-72
2021/06/12 07:07:57;;;;;;;16.00;8.57;;;;;;;;;;5113134;28;20050;-72
2021/06/12 07:10:23;;;;;;;12.10;7.75;;;;;;;;;;5117423;28;20115;-71
2021/06/12 07:12:49;;;;;;;9.02;7.10;;;;;;;;;;5117008;28;20110;-71
2021/06/12 07:15:15;;;;;;;15.90;7.40;;;;;;;;;;5114309;28;20020;-74
2021/06/12 07:17:41;;;;;;;7.68;6.32;;;;;;;;;;5105454;28;20020;-75
2021/06/12 07:20:08;;;;;;;19.60;7.90;;;;;;;;;;5105846;28;20470;-73
2021/06/12 07:22:34;;;;;;;18.00;7.72;;;;;;;;;;5108095;28;20032;-74
2021/06/12 07:25:00;;;;;;;12.93;7.85;;;;;;;;;;5105459;28;20023;-72
2021/06/12 07:27:26;;;;;;;10.25;7.00;;;;;;;;;;5117350;28;20161;-72
2021/06/12 07:29:52;;;;;;;16.55;8.13;;;;;;;;;;5118519;28;20027;-73
2021/06/12 07:32:18;;;;;;;17.90;8.50;;;;;;;;;;5119950;28;20389;-75
2021/06/12 07:34:44;;;;;;;11.88;7.78;;;;;;;;;;5119919;28;20027;-74
2021/06/12 07:37:10;;;;;;;16.45;8.75;;;;;;;;;;5119650;28;20064;-72
2021/06/12 07:39:37;;;;;;;13.70;8.18;;;;;;;;;;5117627;28;20431;-72
2021/06/12 07:42:03;;;;;;;25.25;10.07;;;;;;;;;;5119732;28;20028;-76
2021/06/12 07:44:29;;;;;;;29.23;11.05;;;;;;;;;;5120765;28;20026;-78
2021/06/12 07:46:55;;;;;;;15.20;10.32;;;;;;;;;;5120393;28;20066;-75
2021/06/12 07:49:21;;;;;;;19.17;11.20;;;;;;;;;;5121357;28;20473;-74
2021/06/12 07:51:47;;;;;;;18.65;10.18;;;;;;;;;;5120456;28;20052;-77
2021/06/12 07:54:14;;;;;;;11.65;9.57;;;;;;;;;;5120737;28;20488;-79
2021/06/12 07:56:40;;;;;;;16.67;9.63;;;;;;;;;;5120423;28;20031;-76
2021/06/12 07:59:06;;;;;;;17.30;9.82;;;;;;;;;;5121241;28;20023;-76
2021/06/12 08:01:34;;;;;;;17.75;11.23;;;;;;;;;;5120501;28;20039;-79
2021/06/12 08:04:00;;;;;;;17.42;9.48;;;;;;;;;;5121611;28;20043;-75
2021/06/12 08:06:26;;;;;;;15.20;10.82;;;;;;;;;;5120774;28;20034;-78
2021/06/12 08:08:52;;;;;;;12.05;9.13;;;;;;;;;;5120192;28;20829;-74
2021/06/12 08:11:18;;;;;;;15.70;9.45;;;;;;;;;;5119946;28;20303;-76
2021/06/12 08:13:44;;;;;;;15.35;10.23;;;;;;;;;;5119941;28;20444;-76
2021/06/12 08:16:10;;;;;;;18.88;10.75;;;;;;;;;;5118284;28;20032;-76
2021/06/12 08:18:36;;;;;;;13.88;9.75;;;;;;;;;;5097914;28;20055;-72
2021/06/12 08:21:03;;;;;;;12.05;9.15;;;;;;;;;;5097521;28;20118;-72
2021/06/12 08:23:29;;;;;;;12.88;8.07;;;;;;;;;;5098572;28;20107;-72
2021/06/12 08:25:55;;;;;;;13.48;8.43;;;;;;;;;;5098330;28;20385;-74
2021/06/12 08:28:21;;;;;;;12.63;10.00;;;;;;;;;;5106202;28;20031;-74
2021/06/12 08:30:47;;;;;;;9.43;8.50;;;;;;;;;;5106440;28;20031;-75
2021/06/12 08:33:13;;;;;;;13.90;7.97;;;;;;;;;;5107945;28;20048;-74
2021/06/12 08:35:39;;;;;;;26.58;9.80;;;;;;;;;;5107415;28;20055;-74
2021/06/12 08:38:06;;;;;;;10.70;9.07;;;;;;;;;;5107293;28;20043;-74
2021/06/12 08:40:32;;;;;;;19.52;8.25;;;;;;;;;;5108782;28;20034;-77
2021/06/12 08:42:58;;;;;;;15.20;9.20;;;;;;;;;;5107183;28;20015;-84
2021/06/12 08:45:28;;;;;;;10.02;8.32;;;;;;;;;;5106976;28;20046;-81
2021/06/12 08:47:54;;;;;;;13.90;8.38;;;;;;;;;;5110936;28;20030;-79
2021/06/12 08:50:23;;;;;;;20.98;9.25;;;;;;;;;;5105951;28;20051;-79
2021/06/12 08:52:49;;;;;;;478.05;142.95;;;;;;;;;;5107832;28;20110;-78
2021/06/12 08:55:15;;;;;;;583.78;170.57;;;;;;;;;;5107955;28;20026;-80
2021/06/12 08:57:41;;;;;;;681.88;210.10;;;;;;;;;;5104639;28;20362;-79
2021/06/12 09:00:07;;;;;;;1335.50;437.02;;;;;;;;;;5107328;28;20028;-80
2021/06/12 09:02:53;;;;;;;931.85;315.20;;;;;;;;;;5107056;28;20050;-79
2021/06/12 09:05:19;;;;;;;887.03;289.50;;;;;;;;;;5083227;28;20016;-78
2021/06/12 09:07:46;;;;;;;796.95;264.40;;;;;;;;;;5096702;28;20024;-78
2021/06/12 09:10:14;;;;;;;898.90;316.33;;;;;;;;;;5098165;28;20028;-76
2021/06/12 09:12:47;;;;;;;874.72;303.05;;;;;;;;;;5097740;28;20036;-76
2021/06/12 09:15:15;;;;;;;696.95;242.55;;;;;;;;;;5096839;28;20036;-76
2021/06/12 09:17:43;;;;;;;692.30;221.13;;;;;;;;;;5096835;28;20068;-75
2021/06/12 09:20:09;;;;;;;502.00;176.23;;;;;;;;;;5095425;28;20084;-75
2021/06/12 09:22:35;;;;;;;406.25;131.10;;;;;;;;;;5095219;28;20032;-76
2021/06/12 09:25:01;;;;;;;430.48;134.55;;;;;;;;;;5095384;28;20024;-78
2021/06/12 09:27:27;;;;;;;315.33;99.85;;;;;;;;;;5095552;28;20025;-78
2021/06/12 09:29:53;;;;;;;353.17;111.13;;;;;;;;;;5095194;28;20085;-78
2021/06/12 09:32:21;;;;;;;297.20;94.28;;;;;;;;;;5094438;28;20035;-78
2021/06/12 09:34:48;;;;;;;280.60;93.03;;;;;;;;;;5094860;28;20493;-78
2021/06/12 09:37:16;;;;;;;267.08;91.65;;;;;;;;;;5095286;28;20043;-78
2021/06/12 09:39:42;;;;;;;291.13;94.60;;;;;;;;;;5095363;28;20105;-78
2021/06/12 09:42:09;;;;;;;306.38;99.13;;;;;;;;;;5095088;28;20042;-78
2021/06/12 09:44:35;;;;;;;243.32;83.20;;;;;;;;;;5094917;28;20035;-78
2021/06/12 09:47:03;;;;;;;230.35;84.68;;;;;;;;;;5095352;28;20051;-78
2021/06/12 09:49:29;;;;;;;244.68;84.82;;;;;;;;;;5094957;28;20028;-78
2021/06/12 09:52:01;;;;;;;269.58;92.65;;;;;;;;;;5094769;28;20488;-78
2021/06/12 09:54:27;;;;;;;;;;;;;;;;;;5095374;28;20042;-77
2021/06/12 09:57:00;;;;;;;223.15;78.85;;;;;;;;;;5094970;28;19904;-80
2021/06/12 09:59:26;;;;;;;197.43;74.25;;;;;;;;;;5094822;28;20108;-81
2021/06/12 10:01:52;;;;;;;205.52;71.55;;;;;;;;;;5094415;28;20028;-81
2021/06/12 10:04:20;;;;;;;193.15;71.95;;;;;;;;;;5094796;28;20073;-79
2021/06/12 10:06:46;;;;;;;188.90;69.25;;;;;;;;;;5094677;28;20020;-81
2021/06/12 10:09:12;;;;;;;200.20;71.95;;;;;;;;;;5094549;28;20454;-80
2021/06/12 10:11:38;;;;;;;202.70;73.35;;;;;;;;;;5095305;28;20028;-78
2021/06/12 10:14:04;;;;;;;194.88;70.55;;;;;;;;;;5094794;28;20029;-81
2021/06/12 10:16:31;;;;;;;189.50;74.85;;;;;;;;;;5094880;28;20026;-79
2021/06/12 10:18:57;;;;;;;180.55;70.57;;;;;;;;;;5094312;28;20032;-81
2021/06/12 10:21:24;;;;;;;177.63;68.78;;;;;;;;;;5094566;28;20028;-79
2021/06/12 10:23:50;;;;;;;208.23;73.75;;;;;;;;;;5094955;28;20074;-80
2021/06/12 10:26:16;;;;;;;193.15;70.38;;;;;;;;;;5094859;28;20032;-80
2021/06/12 10:28:42;;;;;;;205.75;76.53;;;;;;;;;;5094026;28;20032;-82
2021/06/12 10:31:11;;;;;;;177.75;64.50;;;;;;;;;;5094691;28;20024;-79
2021/06/12 10:33:39;;;;;;;183.23;64.40;;;;;;;;;;5094378;28;20028;-79
2021/06/12 10:36:14;;;;;;;162.68;63.10;;;;;;;;;;5094259;28;20030;-81
2021/06/12 10:38:40;;;;;;;145.80;59.30;;;;;;;;;;5094045;28;20069;-81
2021/06/12 10:41:13;;;;;;;159.68;67.45;;;;;;;;;;5094536;28;20127;-82
2021/06/12 10:43:39;;;;;;;175.48;68.10;;;;;;;;;;5094029;28;20031;-85
2021/06/12 10:46:25;;;;;;;157.73;60.97;;;;;;;;;;5094021;28;20501;-82
2021/06/12 10:48:53;;;;;;;143.73;58.03;;;;;;;;;;5079380;28;20027;-83
2021/06/12 10:51:41;;;;;;;162.88;64.95;;;;;;;;;;5093955;28;20052;-83
2021/06/12 10:54:23;;;;;;;136.25;57.75;;;;;;;;;;5079897;28;20039;-84
2021/06/12 10:56:51;;;;;;;125.85;55.63;;;;;;;;;;5093500;28;20023;-83
2021/06/12 10:59:37;;;;;;;129.93;51.95;;;;;;;;;;5093852;28;20103;-80
2021/06/12 11:02:09;;;;;;;116.70;54.30;;;;;;;;;;5078997;28;20149;-83
2021/06/12 11:04:35;;;;;;;;;;;;;;;;;;5093659;28;20385;-84
2021/06/12 11:07:06;;;;;;;124.13;62.28;;;;;;;;;;5093477;28;19912;-82
2021/06/12 11:09:34;;;;;;;136.38;69.63;;;;;;;;;;5094367;28;20385;-80
2021/06/12 11:12:03;;;;;;;139.77;63.55;;;;;;;;;;5093379;28;20028;-81
2021/06/12 11:14:30;;;;;;;131.77;55.55;;;;;;;;;;5093955;28;20028;-78
2021/06/12 11:17:15;;;;;;;117.43;47.10;;;;;;;;;;5096949;28;20052;-79
2021/06/12 11:19:45;;;;;;;66.57;32.25;;;;;;;;;;5097536;28;20028;-78
2021/06/12 11:22:27;;;;;;;34.25;20.17;;;;;;;;;;5096065;28;20060;-77
2021/06/12 11:24:56;;;;;;;31.92;18.05;;;;;;;;;;5095113;28;20028;-77
2021/06/12 11:27:27;;;;;;;43.92;16.73;;;;;;;;;;5094498;28;20031;-78
2021/06/12 11:30:14;;;;;;;25.37;12.40;;;;;;;;;;5094754;28;20060;-78
2021/06/12 11:32:40;;;;;;;13.75;10.43;;;;;;;;;;5079423;28;20031;-77
2021/06/12 11:35:06;;;;;;;20.65;10.45;;;;;;;;;;5095309;28;20022;-77
2021/06/12 11:37:32;;;;;;;13.93;10.77;;;;;;;;;;5095728;28;20075;-78
2021/06/12 11:40:01;;;;;;;22.92;12.10;;;;;;;;;;5096374;28;20051;-78
2021/06/12 11:42:43;;;;;;;13.52;10.70;;;;;;;;;;5096173;28;20020;-77
2021/06/12 11:45:13;;;;;;;16.55;13.80;;;;;;;;;;5096877;28;20024;-84
2021/06/12 11:47:39;;;;;;;10.73;8.98;;;;;;;;;;5096207;28;20031;-78
2021/06/12 11:50:05;;;;;;;12.73;9.63;;;;;;;;;;5096084;28;20418;-76
2021/06/12 11:52:35;;;;;;;13.07;10.60;;;;;;;;;;5095502;28;20032;-77
2021/06/12 11:55:09;;;;;;;18.52;10.70;;;;;;;;;;5095579;28;20028;-76
2021/06/12 11:57:43;;;;;;;12.10;10.82;;;;;;;;;;5099496;28;20474;-77
2021/06/12 12:00:28;;;;;;;14.18;8.77;;;;;;;;;;5099417;28;20027;-77
2021/06/12 12:03:03;;;;;;;10.73;9.82;;;;;;;;;;5099853;28;20028;-82
2021/06/12 12:05:31;;;;;;;16.05;9.23;;;;;;;;;;5099941;28;20066;-77
2021/06/12 12:07:57;;;;;;;11.73;9.77;;;;;;;;;;5099280;28;20369;-78
2021/06/12 12:10:25;;;;;;;14.18;9.15;;;;;;;;;;5099166;28;20086;-73
2021/06/12 12:12:51;;;;;;;19.77;9.85;;;;;;;;;;5098213;28;20059;-75
2021/06/12 12:15:33;;;;;;;10.57;8.50;;;;;;;;;;5098433;28;20080;-74
2021/06/12 12:18:02;;;;;;;10.35;9.35;;;;;;;;;;5097788;28;20101;-73
2021/06/12 12:20:29;;;;;;;13.63;8.63;;;;;;;;;;5098128;28;20059;-74
2021/06/12 12:22:55;;;;;;;11.77;9.00;;;;;;;;;;5097781;28;20031;-74
2021/06/12 12:25:29;;;;;;;11.55;10.45;;;;;;;;;;5098387;28;20024;-75
2021/06/12 12:28:13;;;;;;;13.98;10.07;;;;;;;;;;5098354;28;20038;-75
2021/06/12 12:30:42;;;;;;;13.80;11.68;;;;;;;;;;5098154;28;20459;-74
2021/06/12 12:33:09;;;;;;;13.63;10.30;;;;;;;;;;5098453;28;20024;-76
2021/06/12 12:35:35;;;;;;;12.32;9.30;;;;;;;;;;5099017;28;20066;-78
2021/06/12 12:38:18;;;;;;;11.05;9.85;;;;;;;;;;5098881;28;20114;-79
2021/06/12 12:40:44;;;;;;;17.40;10.52;;;;;;;;;;5098838;28;20434;-79
2021/06/12 12:43:12;;;;;;;12.02;8.95;;;;;;;;;;5098652;28;20024;-75
2021/06/12 12:45:38;;;;;;;10.43;9.45;;;;;;;;;;5098804;28;20027;-78
2021/06/12 12:48:04;;;;;;;11.60;9.52;;;;;;;;;;5099335;28;20028;-77
2021/06/12 12:50:30;;;;;;;23.02;9.73;;;;;;;;;;5097949;28;20052;-76
2021/06/12 12:53:12;;;;;;;15.68;10.70;;;;;;;;;;5098441;28;20387;-76
2021/06/12 12:55:38;;;;;;;14.73;10.38;;;;;;;;;;5099233;28;20028;-79
2021/06/12 12:58:05;;;;;;;11.63;9.40;;;;;;;;;;5098738;28;20020;-83
2021/06/12 13:00:33;;;;;;;10.50;9.52;;;;;;;;;;5099137;28;20040;-78
2021/06/12 13:03:01;;;;;;;18.27;15.90;;;;;;;;;;5099222;28;20085;-78
2021/06/12 13:05:27;;;;;;;13.55;12.02;;;;;;;;;;5098701;28;20020;-79
2021/06/12 13:07:57;;;;;;;10.95;9.77;;;;;;;;;;5097992;28;20442;-73
2021/06/12 13:10:36;;;;;;;15.60;9.95;;;;;;;;;;5098432;28;20381;-77
2021/06/12 13:13:03;;;;;;;9.73;8.93;;;;;;;;;;5098984;28;20052;-79
2021/06/12 13:15:29;;;;;;;12.23;8.80;;;;;;;;;;5099508;28;20025;-78
2021/06/12 13:18:11;;;;;;;21.50;7.95;;;;;;;;;;5098505;28;20028;-76
2021/06/12 13:20:37;;;;;;;;;;;;;;;;;;5098963;28;20031;-84
2021/06/12 13:23:03;;;;;;;8.85;7.18;;;;;;;;;;5098563;28;19908;-80
2021/06/12 13:25:30;;;;;;;8.80;6.88;;;;;;;;;;5098902;28;20024;-79
2021/06/12 13:28:18;;;;;;;6.82;6.18;;;;;;;;;;5099234;28;20107;-78
2021/06/12 13:30:47;;;;;;;6.68;6.00;;;;;;;;;;5083826;28;20031;-80
2021/06/12 13:33:14;;;;;;;6.32;5.72;;;;;;;;;;5098755;28;20046;-83
2021/06/12 13:35:42;;;;;;;9.32;5.43;;;;;;;;;;5098137;28;20020;-80
2021/06/12 13:38:16;;;;;;;14.98;5.00;;;;;;;;;;5098346;28;20020;-80
2021/06/12 13:40:50;;;;;;;8.35;6.10;;;;;;;;;;5098429;28;20404;-82
2021/06/12 13:43:17;;;;;;;13.27;7.28;;;;;;;;;;5095739;28;20020;-83
2021/06/12 13:45:43;;;;;;;10.98;7.28;;;;;;;;;;5094964;28;20032;-90
2021/06/12 13:48:09;;;;;;;13.35;7.30;;;;;;;;;;5095788;28;20454;-82
2021/06/12 13:50:35;;;;;;;7.63;6.82;;;;;;;;;;5095200;28;20054;-79
2021/06/12 13:53:01;;;;;;;19.83;6.82;;;;;;;;;;5096864;28;20397;-78
2021/06/12 13:55:27;;;;;;;7.40;6.28;;;;;;;;;;5096532;28;20039;-89
2021/06/12 13:57:54;;;;;;;8.90;6.93;;;;;;;;;;5095920;28;20024;-78
2021/06/12 14:00:20;;;;;;;7.93;7.18;;;;;;;;;;5097015;28;20374;-82
2021/06/12 14:02:46;;;;;;;8.43;7.10;;;;;;;;;;5096860;28;20034;-92
2021/06/12 14:05:12;;;;;;;9.50;6.50;;;;;;;;;;5097359;28;20024;-81
2021/06/12 14:07:41;;;;;;;8.30;7.57;;;;;;;;;;5098116;28;20055;-78
2021/06/12 14:10:09;;;;;;;9.15;8.00;;;;;;;;;;5097500;28;20031;-79
2021/06/12 14:12:35;;;;;;;9.15;8.25;;;;;;;;;;5097927;28;20055;-79
2021/06/12 14:15:01;;;;;;;8.95;7.97;;;;;;;;;;5097908;28;20027;-77
2021/06/12 14:17:27;;;;;;;8.70;7.90;;;;;;;;;;5097494;28;20473;-79
2021/06/12 14:19:53;;;;;;;8.02;7.32;;;;;;;;;;5097160;28;20028;-80
2021/06/12 14:22:19;;;;;;;10.93;7.18;;;;;;;;;;5097788;28;20377;-79
2021/06/12 14:24:45;;;;;;;13.73;7.20;;;;;;;;;;5097404;28;20028;-78
2021/06/12 14:27:11;;;;;;;14.30;6.07;;;;;;;;;;5097672;28;20024;-78
2021/06/12 14:29:38;;;;;;;10.98;6.50;;;;;;;;;;5097668;28;20056;-80
2021/06/12 14:32:05;;;;;;;6.80;6.30;;;;;;;;;;5097811;28;20048;-77